sensor_id;sensor_type;location;lat;lon;timestamp;pressure;altitude;pressure_sealevel;temperature;humidity
7660;BME280;3872;47.902;8.162;2023-04-30T00:00:02;92031.56;;;12.10;100.00
7660;BME280;3872;47.902;8.162;2023-04-30T00:02:35;92028.34;;;12.13;100.00
7660;BME280;3872;47.902;8.162;2023-04-30T00:05:02;92029.56;;;12.61;100.00
7660;BME280;3872;47.902;8.162;2023-04-30T00:07:30;92019.84;;;13.01;100.00
7660;BME280;3872;47.902;8.162;2023-04-30T00:09:57;92026.44;;;12.81;100.00
7660;BME280;3872;47.902;8.162;2023-04-30T00:12:23;92022.22;;;12.27;100.00
7660;BME280;3872;47.902;8.162;2023-04-30T00:14:50;92027.53;;;12.57;100.00
7660;BME280;3872;47.902;8.162;2023-04-30T00:17:17;92017.50;;;12.68;100.00
7660;BME280;3872;47.902;8.162;2023-04-30T00:19:43;92020.72;;;12.57;100.00
7660;BME280;3872;47.902;8.162;2023-04-30T00:22:10;92025.72;;;12.36;100.00
7660;BME280;3872;47.902;8.162;2023-04-30T00:24:38;92021.22;;;12.67;100.00
7660;BME280;3872;47.902;8.162;2023-04-30T00:27:05;92016.47;;;12.78;100.00
7660;BME280;3872;47.902;8.162;2023-04-30T00:29:32;92013.66;;;12.74;100.00
7660;BME280;3872;47.902;8.162;2023-04-30T00:31:58;92013.59;;;12.66;100.00
7660;BME280;3872;47.902;8.162;2023-04-30T00:34:26;92012.31;;;12.54;100.00
7660;BME280;3872;47.902;8.162;2023-04-30T00:36:52;92013.41;;;12.84;100.00
7660;BME280;3872;47.902;8.162;2023-04-30T00:39:19;92007.16;;;12.80;100.00
7660;BME280;3872;47.902;8.162;2023-04-30T00:41:47;92006.81;;;12.20;100.00
7660;BME280;3872;47.902;8.162;2023-04-30T00:44:13;92006.13;;;12.37;100.00
7660;BME280;3872;47.902;8.162;2023-04-30T00:46:40;92003.97;;;12.16;100.00
7660;BME280;3872;47.902;8.162;2023-04-30T00:49:07;92006.97;;;12.01;100.00
7660;BME280;3872;47.902;8.162;2023-04-30T00:51:34;92002.44;;;13.00;100.00
7660;BME280;3872;47.902;8.162;2023-04-30T00:54:01;91999.72;;;13.13;100.00
7660;BME280;3872;47.902;8.162;2023-04-30T00:56:28;92001.63;;;13.21;100.00
7660;BME280;3872;47.902;8.162;2023-04-30T00:58:57;91998.88;;;12.73;100.00
7660;BME280;3872;47.902;8.162;2023-04-30T01:01:24;91992.84;;;13.12;100.00
7660;BME280;3872;47.902;8.162;2023-04-30T01:03:52;91993.47;;;13.09;100.00
7660;BME280;3872;47.902;8.162;2023-04-30T01:06:18;91993.91;;;12.72;100.00
7660;BME280;3872;47.902;8.162;2023-04-30T01:08:45;91978.75;;;12.86;100.00
7660;BME280;3872;47.902;8.162;2023-04-30T01:11:19;91985.81;;;12.68;100.00
7660;BME280;3872;47.902;8.162;2023-04-30T01:13:52;91977.56;;;12.61;100.00
7660;BME280;3872;47.902;8.162;2023-04-30T01:16:26;91977.50;;;11.99;100.00
7660;BME280;3872;47.902;8.162;2023-04-30T01:18:58;91971.44;;;12.52;100.00
7660;BME280;3872;47.902;8.162;2023-04-30T01:21:26;91971.78;;;12.06;100.00
7660;BME280;3872;47.902;8.162;2023-04-30T01:26:55;91970.78;;;11.93;100.00
7660;BME280;3872;47.902;8.162;2023-04-30T01:29:25;91973.06;;;11.59;100.00
7660;BME280;3872;47.902;8.162;2023-04-30T01:31:53;91970.97;;;11.47;100.00
7660;BME280;3872;47.902;8.162;2023-04-30T01:34:20;91965.28;;;11.54;100.00
7660;BME280;3872;47.902;8.162;2023-04-30T01:36:54;91960.19;;;11.71;100.00
7660;BME280;3872;47.902;8.162;2023-04-30T01:39:47;91955.19;;;11.69;100.00
7660;BME280;3872;47.902;8.162;2023-04-30T01:42:19;91960.94;;;11.85;100.00
7660;BME280;3872;47.902;8.162;2023-04-30T01:44:58;91959.31;;;11.75;100.00
7660;BME280;3872;47.902;8.162;2023-04-30T01:47:33;91955.66;;;11.85;100.00
7660;BME280;3872;47.902;8.162;2023-04-30T01:50:09;91965.13;;;11.50;100.00
7660;BME280;3872;47.902;8.162;2023-04-30T01:52:45;91962.97;;;11.88;100.00
7660;BME280;3872;47.902;8.162;2023-04-30T01:55:16;91963.75;;;11.89;100.00
7660;BME280;3872;47.902;8.162;2023-04-30T01:57:50;91953.63;;;12.57;100.00
7660;BME280;3872;47.902;8.162;2023-04-30T02:00:20;91961.94;;;11.75;100.00
7660;BME280;3872;47.902;8.162;2023-04-30T02:02:47;91957.03;;;11.83;100.00
7660;BME280;3872;47.902;8.162;2023-04-30T02:05:14;91961.41;;;12.09;100.00
7660;BME280;3872;47.902;8.162;2023-04-30T02:07:43;91959.03;;;11.99;100.00
7660;BME280;3872;47.902;8.162;2023-04-30T02:10:10;91957.63;;;12.02;100.00
7660;BME280;3872;47.902;8.162;2023-04-30T02:12:37;91961.88;;;11.89;100.00
7660;BME280;3872;47.902;8.162;2023-04-30T02:15:04;91957.50;;;12.29;100.00
7660;BME280;3872;47.902;8.162;2023-04-30T02:17:33;91958.41;;;12.02;100.00
7660;BME280;3872;47.902;8.162;2023-04-30T02:19:59;91964.50;;;11.53;100.00
7660;BME280;3872;47.902;8.162;2023-04-30T02:22:26;91959.84;;;11.50;100.00
7660;BME280;3872;47.902;8.162;2023-04-30T02:24:52;91962.28;;;11.47;100.00
7660;BME280;3872;47.902;8.162;2023-04-30T02:27:20;91962.41;;;11.28;100.00
7660;BME280;3872;47.902;8.162;2023-04-30T02:29:47;91960.25;;;11.66;100.00
7660;BME280;3872;47.902;8.162;2023-04-30T02:32:14;91959.81;;;12.00;100.00
7660;BME280;3872;47.902;8.162;2023-04-30T02:34:42;91966.88;;;11.91;100.00
7660;BME280;3872;47.902;8.162;2023-04-30T02:37:08;91965.31;;;12.12;100.00
7660;BME280;3872;47.902;8.162;2023-04-30T02:39:36;91960.75;;;11.82;100.00
7660;BME280;3872;47.902;8.162;2023-04-30T02:42:03;91958.88;;;11.32;100.00
7660;BME280;3872;47.902;8.162;2023-04-30T02:44:31;91958.19;;;11.41;100.00
7660;BME280;3872;47.902;8.162;2023-04-30T02:46:58;91948.69;;;11.53;100.00
7660;BME280;3872;47.902;8.162;2023-04-30T02:49:25;91952.06;;;11.31;100.00
7660;BME280;3872;47.902;8.162;2023-04-30T02:51:52;91949.50;;;11.40;100.00
7660;BME280;3872;47.902;8.162;2023-04-30T02:54:19;91950.97;;;11.32;100.00
7660;BME280;3872;47.902;8.162;2023-04-30T02:56:47;91954.22;;;11.29;100.00
7660;BME280;3872;47.902;8.162;2023-04-30T02:59:14;91948.97;;;11.02;100.00
7660;BME280;3872;47.902;8.162;2023-04-30T03:01:41;91950.31;;;11.27;100.00
7660;BME280;3872;47.902;8.162;2023-04-30T03:04:07;91949.38;;;11.45;100.00
7660;BME280;3872;47.902;8.162;2023-04-30T03:06:34;91947.56;;;11.32;100.00
7660;BME280;3872;47.902;8.162;2023-04-30T03:09:02;91941.41;;;11.50;100.00
7660;BME280;3872;47.902;8.162;2023-04-30T03:11:28;91944.97;;;11.54;100.00
7660;BME280;3872;47.902;8.162;2023-04-30T03:13:55;91940.44;;;11.68;100.00
7660;BME280;3872;47.902;8.162;2023-04-30T03:16:22;91948.94;;;11.65;100.00
7660;BME280;3872;47.902;8.162;2023-04-30T03:18:48;91949.72;;;12.24;100.00
7660;BME280;3872;47.902;8.162;2023-04-30T03:21:15;91942.44;;;11.63;100.00
7660;BME280;3872;47.902;8.162;2023-04-30T03:23:41;91939.84;;;12.07;100.00
7660;BME280;3872;47.902;8.162;2023-04-30T03:26:09;91944.41;;;11.93;100.00
7660;BME280;3872;47.902;8.162;2023-04-30T03:28:36;91944.69;;;12.14;100.00
7660;BME280;3872;47.902;8.162;2023-04-30T03:31:02;91935.56;;;12.20;100.00
7660;BME280;3872;47.902;8.162;2023-04-30T03:33:30;91947.28;;;11.69;100.00
7660;BME280;3872;47.902;8.162;2023-04-30T03:35:57;91943.97;;;12.00;100.00
7660;BME280;3872;47.902;8.162;2023-04-30T03:38:23;91945.91;;;11.86;100.00
7660;BME280;3872;47.902;8.162;2023-04-30T03:40:50;91943.56;;;11.84;100.00
7660;BME280;3872;47.902;8.162;2023-04-30T03:43:18;91937.94;;;12.30;100.00
7660;BME280;3872;47.902;8.162;2023-04-30T03:45:45;91938.03;;;11.94;100.00
7660;BME280;3872;47.902;8.162;2023-04-30T03:48:12;91930.38;;;11.84;100.00
7660;BME280;3872;47.902;8.162;2023-04-30T03:50:38;91939.00;;;11.98;100.00
7660;BME280;3872;47.902;8.162;2023-04-30T03:53:05;91933.13;;;11.79;100.00
7660;BME280;3872;47.902;8.162;2023-04-30T03:55:31;91938.72;;;12.00;100.00
7660;BME280;3872;47.902;8.162;2023-04-30T03:57:58;91938.22;;;11.62;100.00
7660;BME280;3872;47.902;8.162;2023-04-30T04:00:26;91932.66;;;12.22;100.00
7660;BME280;3872;47.902;8.162;2023-04-30T04:02:53;91943.00;;;11.24;100.00
7660;BME280;3872;47.902;8.162;2023-04-30T04:05:20;91936.78;;;11.92;100.00
7660;BME280;3872;47.902;8.162;2023-04-30T04:07:47;91936.53;;;11.44;100.00
7660;BME280;3872;47.902;8.162;2023-04-30T04:10:14;91939.59;;;11.59;100.00
7660;BME280;3872;47.902;8.162;2023-04-30T04:12:40;91937.22;;;11.85;100.00
7660;BME280;3872;47.902;8.162;2023-04-30T04:15:08;91943.38;;;11.31;100.00
7660;BME280;3872;47.902;8.162;2023-04-30T04:17:37;91944.03;;;11.86;100.00
7660;BME280;3872;47.902;8.162;2023-04-30T04:20:04;91939.94;;;11.80;100.00
7660;BME280;3872;47.902;8.162;2023-04-30T04:22:33;91939.97;;;11.30;100.00
7660;BME280;3872;47.902;8.162;2023-04-30T04:24:59;91948.47;;;11.99;100.00
7660;BME280;3872;47.902;8.162;2023-04-30T04:27:26;91954.34;;;11.11;100.00
7660;BME280;3872;47.902;8.162;2023-04-30T04:29:53;91953.72;;;11.41;100.00
7660;BME280;3872;47.902;8.162;2023-04-30T04:32:20;91950.44;;;11.94;100.00
7660;BME280;3872;47.902;8.162;2023-04-30T04:34:48;91956.78;;;11.21;100.00
7660;BME280;3872;47.902;8.162;2023-04-30T04:37:15;91949.75;;;11.03;100.00
7660;BME280;3872;47.902;8.162;2023-04-30T04:39:42;91947.28;;;11.69;100.00
7660;BME280;3872;47.902;8.162;2023-04-30T04:42:09;91952.06;;;11.67;100.00
7660;BME280;3872;47.902;8.162;2023-04-30T04:44:35;91951.56;;;11.43;100.00
7660;BME280;3872;47.902;8.162;2023-04-30T04:47:04;91951.66;;;11.38;100.00
7660;BME280;3872;47.902;8.162;2023-04-30T04:49:30;91952.91;;;11.90;100.00
7660;BME280;3872;47.902;8.162;2023-04-30T04:51:58;91956.84;;;11.43;100.00
7660;BME280;3872;47.902;8.162;2023-04-30T04:54:26;91948.50;;;11.14;100.00
7660;BME280;3872;47.902;8.162;2023-04-30T04:56:53;91954.16;;;11.57;100.00
7660;BME280;3872;47.902;8.162;2023-04-30T04:59:20;91963.66;;;11.30;100.00
7660;BME280;3872;47.902;8.162;2023-04-30T05:01:47;91962.72;;;11.62;100.00
7660;BME280;3872;47.902;8.162;2023-04-30T05:04:14;91955.72;;;11.58;100.00
7660;BME280;3872;47.902;8.162;2023-04-30T05:06:40;91960.13;;;11.49;100.00
7660;BME280;3872;47.902;8.162;2023-04-30T05:09:09;91963.28;;;11.23;100.00
7660;BME280;3872;47.902;8.162;2023-04-30T05:11:37;91963.09;;;11.69;100.00
7660;BME280;3872;47.902;8.162;2023-04-30T05:14:05;91965.22;;;11.31;100.00
7660;BME280;3872;47.902;8.162;2023-04-30T05:16:32;91960.16;;;11.35;100.00
7660;BME280;3872;47.902;8.162;2023-04-30T05:18:58;91969.66;;;11.72;100.00
7660;BME280;3872;47.902;8.162;2023-04-30T05:21:25;91966.31;;;11.80;100.00
7660;BME280;3872;47.902;8.162;2023-04-30T05:23:53;91970.03;;;11.79;100.00
7660;BME280;3872;47.902;8.162;2023-04-30T05:26:21;91968.38;;;11.69;100.00
7660;BME280;3872;47.902;8.162;2023-04-30T05:28:48;91967.06;;;11.45;100.00
7660;BME280;3872;47.902;8.162;2023-04-30T05:31:16;91967.53;;;11.47;100.00
7660;BME280;3872;47.902;8.162;2023-04-30T05:33:42;91954.41;;;11.69;100.00
7660;BME280;3872;47.902;8.162;2023-04-30T05:36:09;91955.69;;;11.22;100.00
7660;BME280;3872;47.902;8.162;2023-04-30T05:38:36;91955.31;;;11.15;100.00
7660;BME280;3872;47.902;8.162;2023-04-30T05:41:02;91953.34;;;11.20;100.00
7660;BME280;3872;47.902;8.162;2023-04-30T05:43:30;91948.94;;;11.16;100.00
7660;BME280;3872;47.902;8.162;2023-04-30T05:45:57;91953.50;;;11.37;100.00
7660;BME280;3872;47.902;8.162;2023-04-30T05:48:24;91951.56;;;11.43;100.00
7660;BME280;3872;47.902;8.162;2023-04-30T05:50:51;91943.91;;;11.55;100.00
7660;BME280;3872;47.902;8.162;2023-04-30T05:53:18;91939.38;;;11.69;100.00
7660;BME280;3872;47.902;8.162;2023-04-30T05:55:45;91938.22;;;11.75;100.00
7660;BME280;3872;47.902;8.162;2023-04-30T05:58:11;91945.44;;;11.20;100.00
7660;BME280;3872;47.902;8.162;2023-04-30T06:00:39;91946.91;;;11.76;100.00
7660;BME280;3872;47.902;8.162;2023-04-30T06:03:05;91945.91;;;11.72;100.00
7660;BME280;3872;47.902;8.162;2023-04-30T06:05:32;91947.44;;;11.51;100.00
7660;BME280;3872;47.902;8.162;2023-04-30T06:07:59;91941.41;;;11.72;100.00
7660;BME280;3872;47.902;8.162;2023-04-30T06:10:25;91935.00;;;12.32;100.00
7660;BME280;3872;47.902;8.162;2023-04-30T06:12:52;91946.06;;;11.89;100.00
7660;BME280;3872;47.902;8.162;2023-04-30T06:15:18;91945.72;;;11.68;100.00
7660;BME280;3872;47.902;8.162;2023-04-30T06:17:46;91944.56;;;11.97;100.00
7660;BME280;3872;47.902;8.162;2023-04-30T06:20:13;91948.06;;;12.06;100.00
7660;BME280;3872;47.902;8.162;2023-04-30T06:22:40;91951.69;;;11.74;100.00
7660;BME280;3872;47.902;8.162;2023-04-30T06:25:07;91947.09;;;11.16;100.00
7660;BME280;3872;47.902;8.162;2023-04-30T06:27:34;91949.25;;;11.28;100.00
7660;BME280;3872;47.902;8.162;2023-04-30T06:30:00;91956.44;;;11.50;100.00
7660;BME280;3872;47.902;8.162;2023-04-30T06:32:27;91943.66;;;12.24;100.00
7660;BME280;3872;47.902;8.162;2023-04-30T06:34:55;91945.28;;;12.33;100.00
7660;BME280;3872;47.902;8.162;2023-04-30T06:37:21;91939.44;;;12.45;100.00
7660;BME280;3872;47.902;8.162;2023-04-30T06:39:48;91941.56;;;11.90;100.00
7660;BME280;3872;47.902;8.162;2023-04-30T06:42:15;91955.66;;;11.85;100.00
7660;BME280;3872;47.902;8.162;2023-04-30T06:44:42;91949.91;;;11.83;100.00
7660;BME280;3872;47.902;8.162;2023-04-30T06:47:09;91961.41;;;12.09;100.00
7660;BME280;3872;47.902;8.162;2023-04-30T06:49:36;91950.69;;;12.28;100.00
7660;BME280;3872;47.902;8.162;2023-04-30T06:52:06;91953.19;;;12.11;100.00
7660;BME280;3872;47.902;8.162;2023-04-30T06:54:32;91956.88;;;11.79;100.00
7660;BME280;3872;47.902;8.162;2023-04-30T06:56:59;91940.69;;;12.87;100.00
7660;BME280;3872;47.902;8.162;2023-04-30T06:59:26;91935.78;;;13.03;100.00
7660;BME280;3872;47.902;8.162;2023-04-30T07:01:52;91943.09;;;13.71;99.86
7660;BME280;3872;47.902;8.162;2023-04-30T07:04:19;91949.53;;;13.13;100.00
7660;BME280;3872;47.902;8.162;2023-04-30T07:06:46;91948.19;;;13.42;100.00
7660;BME280;3872;47.902;8.162;2023-04-30T07:09:14;91953.16;;;12.95;100.00
7660;BME280;3872;47.902;8.162;2023-04-30T07:11:41;91946.22;;;13.90;97.48
7660;BME280;3872;47.902;8.162;2023-04-30T07:14:08;91946.75;;;13.18;100.00
7660;BME280;3872;47.902;8.162;2023-04-30T07:16:35;91951.41;;;12.82;100.00
7660;BME280;3872;47.902;8.162;2023-04-30T07:19:01;91941.06;;;13.03;100.00
7660;BME280;3872;47.902;8.162;2023-04-30T07:21:28;91940.09;;;12.90;100.00
7660;BME280;3872;47.902;8.162;2023-04-30T07:23:56;91942.28;;;13.53;100.00
7660;BME280;3872;47.902;8.162;2023-04-30T07:26:24;91945.25;;;13.60;100.00
7660;BME280;3872;47.902;8.162;2023-04-30T07:28:51;91942.06;;;12.76;100.00
7660;BME280;3872;47.902;8.162;2023-04-30T07:31:17;91939.03;;;13.48;100.00
7660;BME280;3872;47.902;8.162;2023-04-30T07:33:44;91933.28;;;12.98;100.00
7660;BME280;3872;47.902;8.162;2023-04-30T07:36:11;91940.94;;;13.99;97.03
7660;BME280;3872;47.902;8.162;2023-04-30T07:38:38;91936.53;;;13.43;100.00
7660;BME280;3872;47.902;8.162;2023-04-30T07:41:04;91936.13;;;13.10;100.00
7660;BME280;3872;47.902;8.162;2023-04-30T07:43:33;91935.13;;;13.45;100.00
7660;BME280;3872;47.902;8.162;2023-04-30T07:46:00;91932.22;;;13.98;98.55
7660;BME280;3872;47.902;8.162;2023-04-30T07:48:26;91927.19;;;13.45;100.00
7660;BME280;3872;47.902;8.162;2023-04-30T07:50:53;91933.91;;;14.03;97.96
7660;BME280;3872;47.902;8.162;2023-04-30T07:53:21;91930.47;;;14.02;95.41
7660;BME280;3872;47.902;8.162;2023-04-30T07:55:49;91927.19;;;14.23;97.00
7660;BME280;3872;47.902;8.162;2023-04-30T07:58:15;91925.09;;;15.01;84.08
7660;BME280;3872;47.902;8.162;2023-04-30T08:00:43;91931.78;;;15.07;81.53
7660;BME280;3872;47.902;8.162;2023-04-30T08:03:10;91928.94;;;13.76;99.44
7660;BME280;3872;47.902;8.162;2023-04-30T08:05:36;91925.00;;;14.33;99.37
7660;BME280;3872;47.902;8.162;2023-04-30T08:08:03;91930.91;;;14.94;89.50
7660;BME280;3872;47.902;8.162;2023-04-30T08:10:30;91934.06;;;14.79;86.20
7660;BME280;3872;47.902;8.162;2023-04-30T08:12:56;91928.97;;;14.74;86.12
7660;BME280;3872;47.902;8.162;2023-04-30T08:15:23;91933.06;;;14.54;88.38
7660;BME280;3872;47.902;8.162;2023-04-30T08:17:51;91938.38;;;14.37;89.83
7660;BME280;3872;47.902;8.162;2023-04-30T08:20:18;91938.25;;;14.16;90.33
7660;BME280;3872;47.902;8.162;2023-04-30T08:22:45;91933.94;;;14.75;87.72
7660;BME280;3872;47.902;8.162;2023-04-30T08:25:12;91937.03;;;15.45;80.06
7660;BME280;3872;47.902;8.162;2023-04-30T08:27:39;91944.75;;;15.88;76.36
7660;BME280;3872;47.902;8.162;2023-04-30T08:30:06;91947.59;;;15.24;81.59
7660;BME280;3872;47.902;8.162;2023-04-30T08:32:33;91949.59;;;15.86;72.97
7660;BME280;3872;47.902;8.162;2023-04-30T08:35:01;91940.25;;;16.87;66.60
7660;BME280;3872;47.902;8.162;2023-04-30T08:37:27;91945.03;;;16.28;73.07
7660;BME280;3872;47.902;8.162;2023-04-30T08:39:54;91950.09;;;15.79;74.38
7660;BME280;3872;47.902;8.162;2023-04-30T08:42:24;91934.03;;;16.50;71.05
7660;BME280;3872;47.902;8.162;2023-04-30T08:44:50;91943.19;;;15.66;75.22
7660;BME280;3872;47.902;8.162;2023-04-30T08:47:18;91945.88;;;16.73;67.90
7660;BME280;3872;47.902;8.162;2023-04-30T08:49:46;91947.03;;;16.31;71.59
7660;BME280;3872;47.902;8.162;2023-04-30T08:52:14;91947.97;;;15.93;73.29
7660;BME280;3872;47.902;8.162;2023-04-30T08:54:41;91938.00;;;15.11;82.82
7660;BME280;3872;47.902;8.162;2023-04-30T08:57:09;91953.53;;;15.59;75.54
7660;BME280;3872;47.902;8.162;2023-04-30T08:59:36;91948.94;;;16.10;71.33
7660;BME280;3872;47.902;8.162;2023-04-30T09:02:03;91946.88;;;15.94;73.59
7660;BME280;3872;47.902;8.162;2023-04-30T09:04:30;91951.13;;;16.28;70.08
7660;BME280;3872;47.902;8.162;2023-04-30T09:06:57;91950.41;;;16.40;68.71
7660;BME280;3872;47.902;8.162;2023-04-30T09:09:29;91944.94;;;16.03;70.56
7660;BME280;3872;47.902;8.162;2023-04-30T09:12:12;91945.72;;;15.83;71.59
7660;BME280;3872;47.902;8.162;2023-04-30T09:14:40;91943.44;;;15.73;73.87
7660;BME280;3872;47.902;8.162;2023-04-30T09:17:07;91940.41;;;16.04;72.32
7660;BME280;3872;47.902;8.162;2023-04-30T09:19:34;91931.16;;;16.76;64.26
7660;BME280;3872;47.902;8.162;2023-04-30T09:22:28;91943.00;;;16.45;68.08
7660;BME280;3872;47.902;8.162;2023-04-30T09:24:56;91933.88;;;16.34;68.19
7660;BME280;3872;47.902;8.162;2023-04-30T09:27:23;91942.59;;;15.60;72.85
7660;BME280;3872;47.902;8.162;2023-04-30T09:29:49;91934.72;;;16.47;69.29
7660;BME280;3872;47.902;8.162;2023-04-30T09:32:16;91937.19;;;16.64;67.32
7660;BME280;3872;47.902;8.162;2023-04-30T09:34:42;91943.84;;;16.04;72.08
7660;BME280;3872;47.902;8.162;2023-04-30T09:37:09;91934.31;;;16.03;71.23
7660;BME280;3872;47.902;8.162;2023-04-30T09:39:46;91938.09;;;16.35;66.34
7660;BME280;3872;47.902;8.162;2023-04-30T09:42:15;91936.25;;;15.94;69.59
7660;BME280;3872;47.902;8.162;2023-04-30T09:44:42;91931.53;;;16.00;68.36
7660;BME280;3872;47.902;8.162;2023-04-30T09:47:13;91928.03;;;16.74;63.19
7660;BME280;3872;47.902;8.162;2023-04-30T09:49:41;91928.22;;;16.24;68.29
7660;BME280;3872;47.902;8.162;2023-04-30T09:52:09;91931.19;;;16.22;69.38
7660;BME280;3872;47.902;8.162;2023-04-30T09:54:36;91940.34;;;16.78;65.90
7660;BME280;3872;47.902;8.162;2023-04-30T09:57:03;91931.13;;;16.43;67.36
7660;BME280;3872;47.902;8.162;2023-04-30T09:59:33;91931.56;;;16.33;68.41
7660;BME280;3872;47.902;8.162;2023-04-30T10:02:03;91932.25;;;15.88;70.63
7660;BME280;3872;47.902;8.162;2023-04-30T10:04:33;91916.84;;;16.68;65.89
7660;BME280;3872;47.902;8.162;2023-04-30T10:07:01;91926.88;;;15.76;74.37
7660;BME280;3872;47.902;8.162;2023-04-30T10:09:34;91931.53;;;15.50;76.49
7660;BME280;3872;47.902;8.162;2023-04-30T10:12:06;91925.84;;;15.89;70.21
7660;BME280;3872;47.902;8.162;2023-04-30T10:14:35;91922.97;;;16.81;67.76
7660;BME280;3872;47.902;8.162;2023-04-30T10:17:07;91927.75;;;16.22;68.99
7660;BME280;3872;47.902;8.162;2023-04-30T10:19:38;91922.41;;;16.10;66.66
7660;BME280;3872;47.902;8.162;2023-04-30T10:22:06;91923.50;;;16.09;72.22
7660;BME280;3872;47.902;8.162;2023-04-30T10:24:33;91926.75;;;15.93;71.14
7660;BME280;3872;47.902;8.162;2023-04-30T10:27:00;91909.34;;;17.07;61.56
7660;BME280;3872;47.902;8.162;2023-04-30T10:29:27;91918.22;;;17.35;59.60
7660;BME280;3872;47.902;8.162;2023-04-30T10:31:56;91906.56;;;16.79;65.17
7660;BME280;3872;47.902;8.162;2023-04-30T10:34:30;91918.25;;;16.00;67.40
7660;BME280;3872;47.902;8.162;2023-04-30T10:37:05;91913.00;;;16.45;66.93
7660;BME280;3872;47.902;8.162;2023-04-30T10:39:34;91918.53;;;16.40;67.79
7660;BME280;3872;47.902;8.162;2023-04-30T10:42:01;91911.47;;;16.89;66.60
7660;BME280;3872;47.902;8.162;2023-04-30T10:44:31;91906.09;;;16.77;65.61
7660;BME280;3872;47.902;8.162;2023-04-30T10:46:59;91910.34;;;17.02;61.39
7660;BME280;3872;47.902;8.162;2023-04-30T10:49:27;91906.38;;;17.08;61.31
7660;BME280;3872;47.902;8.162;2023-04-30T10:51:53;91914.63;;;16.37;65.66
7660;BME280;3872;47.902;8.162;2023-04-30T10:54:25;91902.88;;;16.26;66.56
7660;BME280;3872;47.902;8.162;2023-04-30T10:56:53;91905.97;;;16.28;68.40
7660;BME280;3872;47.902;8.162;2023-04-30T10:59:20;91902.94;;;16.96;63.66
7660;BME280;3872;47.902;8.162;2023-04-30T11:02:00;91900.94;;;17.17;60.74
7660;BME280;3872;47.902;8.162;2023-04-30T11:04:27;91905.50;;;17.16;61.62
7660;BME280;3872;47.902;8.162;2023-04-30T11:07:01;91901.41;;;17.19;61.70
7660;BME280;3872;47.902;8.162;2023-04-30T11:09:38;91902.59;;;17.46;58.26
7660;BME280;3872;47.902;8.162;2023-04-30T11:12:11;91894.84;;;17.16;63.52
7660;BME280;3872;47.902;8.162;2023-04-30T11:14:42;91899.03;;;16.81;64.32
7660;BME280;3872;47.902;8.162;2023-04-30T11:17:11;91899.69;;;17.75;57.26
7660;BME280;3872;47.902;8.162;2023-04-30T11:19:45;91896.38;;;17.42;60.10
7660;BME280;3872;47.902;8.162;2023-04-30T11:22:18;91892.50;;;17.51;58.52
7660;BME280;3872;47.902;8.162;2023-04-30T11:25:04;91884.06;;;17.74;57.20
7660;BME280;3872;47.902;8.162;2023-04-30T11:27:31;91883.28;;;18.57;54.14
7660;BME280;3872;47.902;8.162;2023-04-30T11:29:59;91879.63;;;18.61;53.91
7660;BME280;3872;47.902;8.162;2023-04-30T11:32:31;91880.00;;;18.20;54.99
7660;BME280;3872;47.902;8.162;2023-04-30T11:34:59;91876.53;;;19.06;55.19
7660;BME280;3872;47.902;8.162;2023-04-30T11:37:30;91879.78;;;18.84;54.80
7660;BME280;3872;47.902;8.162;2023-04-30T11:39:59;91876.34;;;18.99;53.23
7660;BME280;3872;47.902;8.162;2023-04-30T11:42:26;91875.78;;;19.57;49.00
7660;BME280;3872;47.902;8.162;2023-04-30T11:45:01;91876.41;;;19.34;50.57
7660;BME280;3872;47.902;8.162;2023-04-30T11:47:41;91866.38;;;18.96;49.40
7660;BME280;3872;47.902;8.162;2023-04-30T11:50:09;91870.50;;;18.94;49.55
7660;BME280;3872;47.902;8.162;2023-04-30T11:52:36;91872.25;;;20.26;46.69
7660;BME280;3872;47.902;8.162;2023-04-30T11:55:11;91870.88;;;20.74;45.88
7660;BME280;3872;47.902;8.162;2023-04-30T11:57:39;91874.19;;;19.71;46.95
7660;BME280;3872;47.902;8.162;2023-04-30T12:00:10;91865.00;;;18.87;50.74
7660;BME280;3872;47.902;8.162;2023-04-30T12:02:39;91873.06;;;18.59;52.01
7660;BME280;3872;47.902;8.162;2023-04-30T12:05:14;91876.09;;;18.29;52.07
7660;BME280;3872;47.902;8.162;2023-04-30T12:07:45;91867.41;;;19.23;50.73
7660;BME280;3872;47.902;8.162;2023-04-30T12:10:12;91865.84;;;18.59;51.56
7660;BME280;3872;47.902;8.162;2023-04-30T12:12:39;91867.19;;;17.70;58.02
7660;BME280;3872;47.902;8.162;2023-04-30T12:15:13;91869.41;;;17.80;57.33
7660;BME280;3872;47.902;8.162;2023-04-30T12:17:42;91868.16;;;17.77;55.81
7660;BME280;3872;47.902;8.162;2023-04-30T12:20:10;91875.97;;;17.98;55.76
7660;BME280;3872;47.902;8.162;2023-04-30T12:22:38;91873.50;;;17.77;55.58
7660;BME280;3872;47.902;8.162;2023-04-30T12:25:06;91875.94;;;17.70;56.92
7660;BME280;3872;47.902;8.162;2023-04-30T12:27:34;91877.59;;;17.87;56.28
7660;BME280;3872;47.902;8.162;2023-04-30T12:30:03;91878.78;;;17.25;57.01
7660;BME280;3872;47.902;8.162;2023-04-30T12:32:36;91867.56;;;18.24;53.78
7660;BME280;3872;47.902;8.162;2023-04-30T12:35:05;91878.41;;;18.03;53.05
7660;BME280;3872;47.902;8.162;2023-04-30T12:37:32;91868.44;;;18.00;53.28
7660;BME280;3872;47.902;8.162;2023-04-30T12:39:59;91868.38;;;17.08;55.80
7660;BME280;3872;47.902;8.162;2023-04-30T12:42:30;91867.81;;;17.39;53.00
7660;BME280;3872;47.902;8.162;2023-04-30T12:44:58;91860.75;;;17.71;54.20
7660;BME280;3872;47.902;8.162;2023-04-30T12:47:25;91855.66;;;18.06;51.97
7660;BME280;3872;47.902;8.162;2023-04-30T12:49:52;91843.88;;;18.07;52.56
7660;BME280;3872;47.902;8.162;2023-04-30T12:52:23;91851.09;;;17.78;53.39
7660;BME280;3872;47.902;8.162;2023-04-30T12:54:50;91855.69;;;17.41;54.39
7660;BME280;3872;47.902;8.162;2023-04-30T12:57:17;91858.31;;;18.06;52.77
7660;BME280;3872;47.902;8.162;2023-04-30T12:59:55;91855.84;;;18.13;53.20
7660;BME280;3872;47.902;8.162;2023-04-30T13:02:23;91860.44;;;17.72;54.22
7660;BME280;3872;47.902;8.162;2023-04-30T13:04:51;91864.78;;;17.52;55.06
7660;BME280;3872;47.902;8.162;2023-04-30T13:07:19;91863.22;;;17.76;52.75
7660;BME280;3872;47.902;8.162;2023-04-30T13:09:46;91861.56;;;18.86;49.12
7660;BME280;3872;47.902;8.162;2023-04-30T13:12:13;91855.44;;;18.11;52.03
7660;BME280;3872;47.902;8.162;2023-04-30T13:14:39;91865.88;;;17.76;53.62
7660;BME280;3872;47.902;8.162;2023-04-30T13:17:06;91865.91;;;17.27;56.68
7660;BME280;3872;47.902;8.162;2023-04-30T13:19:34;91865.34;;;17.34;56.90
7660;BME280;3872;47.902;8.162;2023-04-30T13:22:00;91859.44;;;17.65;53.48